Time;durP1;ratioP1;P1;durP2;ratioP2;P2;SDS_P1;SDS_P2;PMS_P1;PMS_P2;Temp;Humidity;BMP_temperature;BMP_pressure;BME280_temperature;BME280_humidity;BME280_pressure;Samples;Min_cycle;Max_cycle;Signal;HPM_P1;HPM_P2
2023/01/31 00:03:26;;;;;;;1.08;0.28;;;;;;;0.44;97.80;97247.78;10406568;28;20516;-83
2023/01/31 00:08:28;;;;;;;0.30;0.20;;;;;;;0.44;97.37;97247.78;10406201;28;20033;-84
2023/01/31 00:13:30;;;;;;;0.55;0.40;;;;;;;0.46;97.35;97246.38;10407122;28;20529;-83
2023/01/31 00:18:33;;;;;;;0.75;0.38;;;;;;;0.46;97.56;97259.06;10407641;28;20505;-85
2023/01/31 00:23:36;;;;;;;0.30;0.30;;;;;;;0.47;97.53;97239.88;10405856;28;20048;-86
2023/01/31 00:28:38;;;;;;;2.22;0.40;;;;;;;0.46;97.75;97250.97;10405150;28;20050;-85
2023/01/31 00:33:43;;;;;;;0.57;0.40;;;;;;;0.44;97.83;97247.78;10404796;28;20046;-84
2023/01/31 00:38:47;;;;;;;2.10;0.38;;;;;;;0.44;98.00;97255.88;10403550;28;20054;-82
2023/01/31 00:43:50;;;;;;;1.75;0.10;;;;;;;0.45;98.09;97255.56;10405123;28;20038;-83
2023/01/31 00:48:53;;;;;;;0.57;0.30;;;;;;;0.45;98.95;97262.88;10403679;28;20057;-83
2023/01/31 00:53:55;;;;;;;0.22;0.17;;;;;;;0.39;99.51;97289.13;10403108;28;20524;-83
2023/01/31 00:58:57;;;;;;;1.08;0.22;;;;;;;0.33;98.92;97294.91;10403868;28;20046;-84
2023/01/31 01:04:00;;;;;;;1.52;0.35;;;;;;;0.18;99.68;97286.00;10404130;28;20049;-84
2023/01/31 01:09:02;;;;;;;0.03;0.03;;;;;;;0.08;100.00;97298.84;10402795;28;20041;-84
2023/01/31 01:14:04;;;;;;;0.20;0.20;;;;;;;0.05;100.00;97294.03;10403060;28;20424;-84
2023/01/31 01:19:11;;;;;;;0.15;0.15;;;;;;;0.04;100.00;97304.03;10386531;28;20064;-83
2023/01/31 01:24:17;;;;;;;0.17;0.17;;;;;;;0.05;100.00;97307.53;10405920;28;20046;-82
2023/01/31 01:29:19;;;;;;;0.68;0.40;;;;;;;-0.01;100.00;97314.88;10387132;28;20416;-83
2023/01/31 01:34:21;;;;;;;0.20;0.20;;;;;;;-0.06;100.00;97315.75;10402547;28;20057;-83
2023/01/31 01:39:24;;;;;;;0.45;0.45;;;;;;;-0.13;100.00;97314.53;10403461;28;20045;-84
2023/01/31 01:44:45;;;;;;;0.75;0.40;;;;;;;-0.17;100.00;97318.94;10402023;28;20039;-84
2023/01/31 01:49:52;;;;;;;0.30;0.30;;;;;;;-0.11;100.00;97320.44;10401711;28;20069;-83
2023/01/31 01:55:11;;;;;;;0.20;0.20;;;;;;;-0.10;100.00;97330.13;10402910;28;20042;-83
2023/01/31 02:00:18;;;;;;;0.00;0.00;;;;;;;-0.07;100.00;97332.22;10402106;28;20038;-84
2023/01/31 02:05:25;;;;;;;0.45;0.20;;;;;;;-0.07;100.00;97332.22;10403706;28;20065;-85
2023/01/31 02:10:35;;;;;;;0.25;0.25;;;;;;;-0.11;100.00;97339.31;10403261;28;20046;-85
2023/01/31 02:15:40;;;;;;;0.28;0.28;;;;;;;-0.12;100.00;97343.91;10409920;28;20208;-84
2023/01/31 02:21:06;;;;;;;0.10;0.10;;;;;;;-0.16;100.00;97358.25;10399408;28;20038;-85
2023/01/31 02:26:30;;;;;;;0.30;0.20;;;;;;;-0.18;100.00;97360.41;10413205;28;20420;-83
2023/01/31 02:31:38;;;;;;;0.05;0.05;;;;;;;-0.21;100.00;97367.19;10414362;28;20056;-84
2023/01/31 02:36:50;;;;;;;0.25;0.25;;;;;;;-0.22;100.00;97372.88;10412282;28;20169;-84
2023/01/31 02:42:16;;;;;;;0.13;0.13;;;;;;;-0.27;100.00;97370.25;10393995;28;20046;-83
2023/01/31 02:47:32;;;;;;;0.20;0.20;;;;;;;-0.32;100.00;97377.31;10409667;28;20535;-83
2023/01/31 02:52:41;;;;;;;0.30;0.30;;;;;;;-0.31;100.00;97384.31;10408105;28;20412;-84
2023/01/31 02:57:49;;;;;;;0.35;0.35;;;;;;;-0.34;100.00;97389.47;10408000;28;20064;-83
2023/01/31 03:02:51;;;;;;;0.20;0.20;;;;;;;-0.47;100.00;97406.34;10407821;28;20053;-84
2023/01/31 03:07:56;;;;;;;0.08;0.08;;;;;;;-0.53;100.00;97418.25;10407618;28;20038;-84
2023/01/31 03:13:19;;;;;;;0.68;0.38;;;;;;;-0.55;100.00;97426.63;10407262;28;20034;-83
2023/01/31 03:18:28;;;;;;;0.57;0.40;;;;;;;-0.58;100.00;97416.44;10390842;28;20046;-83
2023/01/31 03:23:34;;;;;;;0.45;0.45;;;;;;;-0.63;100.00;97424.59;10405876;28;20056;-82
2023/01/31 03:28:41;;;;;;;0.00;0.00;;;;;;;-0.62;100.00;97432.38;10405617;28;20052;-83
2023/01/31 03:33:46;;;;;;;0.20;0.20;;;;;;;-0.60;100.00;97442.84;10389888;28;20389;-83
2023/01/31 03:39:43;;;;;;;0.40;0.13;;;;;;;-0.62;100.00;97451.22;10405673;28;20038;-82
2023/01/31 03:45:01;;;;;;;0.30;0.30;;;;;;;-0.71;100.00;97460.19;10426380;28;20049;-83
2023/01/31 03:50:20;;;;;;;1.33;0.32;;;;;;;-0.73;100.00;97463.19;10405181;28;20046;-84
2023/01/31 03:55:53;;;;;;;0.30;0.30;;;;;;;-0.76;100.00;97471.84;10372940;28;20042;-84
2023/01/31 04:00:58;;;;;;;0.10;0.10;;;;;;;-0.71;99.96;97484.44;10405775;28;20042;-83
2023/01/31 04:06:01;;;;;;;0.10;0.10;;;;;;;-0.67;99.95;97488.19;10389744;28;20393;-83
2023/01/31 04:11:08;;;;;;;0.40;0.40;;;;;;;-0.64;99.31;97492.97;10390081;28;20046;-83
2023/01/31 04:16:11;;;;;;;0.20;0.20;;;;;;;-0.71;99.01;97500.59;10408225;28;20058;-82
2023/01/31 04:21:14;;;;;;;0.38;0.25;;;;;;;-0.74;98.35;97512.72;10405020;28;20049;-83
2023/01/31 04:26:16;;;;;;;0.17;0.17;;;;;;;-0.76;98.21;97508.72;10409144;28;20049;-83
2023/01/31 04:31:19;;;;;;;1.90;0.47;;;;;;;-0.79;98.13;97517.38;10407451;28;20045;-81
2023/01/31 04:36:21;;;;;;;0.17;0.17;;;;;;;-0.83;97.97;97532.50;10404067;28;20065;-82
2023/01/31 04:41:23;;;;;;;0.20;0.20;;;;;;;-0.83;98.43;97532.50;10405966;28;20631;-81
2023/01/31 04:46:25;;;;;;;0.10;0.10;;;;;;;-0.85;98.12;97529.28;10405516;28;20050;-83
2023/01/31 04:51:28;;;;;;;0.45;0.30;;;;;;;-0.88;98.64;97529.81;10403678;28;20054;-83
2023/01/31 04:56:31;;;;;;;0.77;0.47;;;;;;;-0.92;98.88;97538.47;10403182;28;20424;-83
2023/01/31 05:01:38;;;;;;;0.55;0.55;;;;;;;-1.01;98.31;97534.78;10403506;28;20258;-84
2023/01/31 05:06:40;;;;;;;0.33;0.27;;;;;;;-1.06;98.19;97556.34;10404133;28;20045;-84
2023/01/31 05:11:43;;;;;;;0.28;0.25;;;;;;;-1.09;98.09;97567.66;10403132;28;20046;-83
2023/01/31 05:16:46;;;;;;;0.50;0.50;;;;;;;-1.13;98.51;97572.00;10402787;28;20061;-82
2023/01/31 05:21:54;;;;;;;0.65;0.65;;;;;;;-1.10;98.52;97576.03;10402518;28;20046;-83
2023/01/31 05:26:58;;;;;;;0.30;0.30;;;;;;;-1.17;98.48;97580.94;10403957;28;20063;-84
2023/01/31 05:32:01;;;;;;;1.05;0.50;;;;;;;-1.20;98.64;97582.28;10404698;28;20488;-82
2023/01/31 05:37:04;;;;;;;0.60;0.60;;;;;;;-1.22;99.03;97589.81;10403589;28;20065;-83
2023/01/31 05:42:06;;;;;;;0.55;0.55;;;;;;;-1.24;99.00;97613.50;10403539;28;20050;-82
2023/01/31 05:47:08;;;;;;;0.40;0.40;;;;;;;-1.26;98.85;97613.00;10407465;28;20053;-84
2023/01/31 05:52:10;;;;;;;0.52;0.50;;;;;;;-1.30;98.46;97615.44;10411341;28;20492;-83
2023/01/31 05:57:14;;;;;;;0.88;0.57;;;;;;;-1.32;97.91;97630.25;10410639;28;20058;-84
2023/01/31 06:02:16;;;;;;;0.50;0.50;;;;;;;-1.31;97.88;97629.16;10410937;28;20160;-82
2023/01/31 06:07:19;;;;;;;1.15;0.70;;;;;;;-1.31;97.99;97632.66;10411364;28;20049;-84
2023/01/31 06:12:21;;;;;;;1.70;0.68;;;;;;;-1.36;98.86;97646.16;10412630;28;20042;-84
2023/01/31 06:17:23;;;;;;;0.13;0.13;;;;;;;-1.35;98.72;97655.81;10411848;28;20068;-84
2023/01/31 06:22:25;;;;;;;2.47;0.88;;;;;;;-1.36;98.57;97669.53;10412721;28;20049;-83
2023/01/31 06:27:32;;;;;;;0.52;0.52;;;;;;;-1.37;98.92;97682.19;10414801;28;20050;-82
2023/01/31 06:32:34;;;;;;;1.50;0.68;;;;;;;-1.34;98.98;97678.13;10409339;28;20073;-84
2023/01/31 06:37:36;;;;;;;2.60;0.55;;;;;;;-1.29;98.90;97686.19;10410063;28;20049;-82
2023/01/31 06:42:38;;;;;;;0.15;0.13;;;;;;;-1.29;98.72;97691.56;10409274;28;20057;-82
2023/01/31 06:47:40;;;;;;;0.32;0.30;;;;;;;-1.34;98.40;97687.00;10408641;28;20045;-83
2023/01/31 06:52:43;;;;;;;1.10;0.70;;;;;;;-1.31;98.55;97697.22;10410042;28;20054;-82
2023/01/31 06:57:46;;;;;;;1.15;0.98;;;;;;;-1.29;99.46;97703.13;10408952;28;20038;-83
2023/01/31 07:02:49;;;;;;;0.30;0.30;;;;;;;-1.29;98.66;97718.44;10409212;28;20072;-83
2023/01/31 07:07:51;;;;;;;6.32;1.00;;;;;;;-1.30;98.58;97723.03;10407989;28;20077;-83
2023/01/31 07:12:53;;;;;;;0.35;0.35;;;;;;;-1.32;98.39;97724.38;10407108;28;20046;-83
2023/01/31 07:17:58;;;;;;;1.45;0.57;;;;;;;-1.34;98.05;97737.31;10408012;28;20042;-83
2023/01/31 07:23:01;;;;;;;0.50;0.50;;;;;;;-1.30;98.10;97743.75;10407105;28;20049;-82
2023/01/31 07:28:29;;;;;;;1.97;0.97;;;;;;;-1.27;97.74;97748.56;10407998;28;20057;-83
2023/01/31 07:33:35;;;;;;;1.90;0.90;;;;;;;-1.27;97.81;97759.34;10406766;28;20034;-83
2023/01/31 07:38:37;;;;;;;1.13;0.88;;;;;;;-1.27;97.51;97759.34;10407476;28;20056;-82
2023/01/31 07:43:39;;;;;;;1.27;0.93;;;;;;;-1.26;97.61;97771.69;10405709;28;20421;-83
2023/01/31 07:48:42;;;;;;;1.55;1.23;;;;;;;-1.27;97.21;97778.97;10406637;28;20049;-82
2023/01/31 07:53:52;;;;;;;1.27;1.02;;;;;;;-1.31;97.57;97793.25;10406510;28;20049;-82
2023/01/31 07:58:54;;;;;;;1.98;1.02;;;;;;;-1.28;97.86;97806.94;10405549;28;20045;-81
2023/01/31 08:04:00;;;;;;;0.75;0.73;;;;;;;-1.27;98.05;97815.81;10406064;28;20485;-81
2023/01/31 08:09:02;;;;;;;0.63;0.60;;;;;;;-1.27;97.71;97832.75;10405263;28;20385;-81
2023/01/31 08:14:07;;;;;;;0.60;0.60;;;;;;;-1.29;97.60;97843.00;10405750;28;20389;-82
2023/01/31 08:19:09;;;;;;;1.02;0.88;;;;;;;-1.29;97.15;97843.00;10406089;28;20046;-81
2023/01/31 08:24:12;;;;;;;1.15;1.05;;;;;;;-1.29;96.19;97869.09;10404493;28;20049;-84
2023/01/31 08:29:14;;;;;;;0.25;0.25;;;;;;;-1.30;96.33;97873.66;10405505;28;20153;-81
2023/01/31 08:34:16;;;;;;;2.15;0.98;;;;;;;-1.29;96.14;97888.72;10406137;28;20052;-81
2023/01/31 08:39:19;;;;;;;1.20;0.80;;;;;;;-1.27;96.20;97910.78;10405077;28;20062;-80
2023/01/31 08:44:21;;;;;;;1.17;1.08;;;;;;;-1.33;97.07;97905.69;10404699;28;20042;-80
2023/01/31 08:49:23;;;;;;;1.48;1.10;;;;;;;-1.37;96.62;97905.44;10403684;28;20054;-81
2023/01/31 08:59:54;;;;;;;1.03;0.73;;;;;;;-1.33;95.23;97903.81;10404149;28;20052;-82
2023/01/31 09:05:01;;;;;;;0.60;0.60;;;;;;;-1.30;94.40;97915.91;10404700;28;20041;-83
2023/01/31 09:10:04;;;;;;;1.80;0.70;;;;;;;-1.20;92.93;97923.16;10404170;28;20053;-82
2023/01/31 09:15:07;;;;;;;1.23;1.00;;;;;;;-1.17;92.63;97933.38;10403879;28;20044;-82
2023/01/31 09:20:09;;;;;;;2.47;0.90;;;;;;;-1.15;91.84;97944.69;10401900;28;20053;-82
2023/01/31 09:25:12;;;;;;;1.95;1.20;;;;;;;-1.14;91.37;97957.06;10403710;28;20041;-83
2023/01/31 09:30:15;;;;;;;2.35;1.00;;;;;;;-1.14;91.76;97965.13;10403879;28;20463;-82
2023/01/31 09:35:18;;;;;;;1.30;0.98;;;;;;;-1.21;90.40;97960.03;10403224;28;20674;-83
2023/01/31 09:40:22;;;;;;;1.30;1.20;;;;;;;-1.20;90.49;97967.03;10401816;28;20064;-82
2023/01/31 09:45:34;;;;;;;1.85;1.05;;;;;;;-1.19;90.44;97987.47;10401551;28;20558;-82
2023/01/31 09:50:39;;;;;;;1.25;1.02;;;;;;;-1.19;91.19;97997.41;10402171;28;20073;-82
2023/01/31 09:55:51;;;;;;;1.80;0.77;;;;;;;-1.16;90.80;98002.25;10385816;28;20548;-82
2023/01/31 10:01:02;;;;;;;1.48;0.90;;;;;;;-1.15;90.45;98010.06;10403021;28;20073;-82
2023/01/31 10:06:26;;;;;;;1.30;0.80;;;;;;;-1.11;89.50;98016.50;10401721;28;20525;-82
2023/01/31 10:11:44;;;;;;;1.17;1.08;;;;;;;-1.10;89.46;98028.06;10403121;28;20049;-83
2023/01/31 10:16:54;;;;;;;1.50;1.10;;;;;;;-1.14;88.22;98032.38;10404350;28;20420;-83
2023/01/31 10:22:01;;;;;;;1.10;1.00;;;;;;;-1.09;88.81;98052.03;10404610;28;20062;-83
2023/01/31 10:27:11;;;;;;;1.95;1.00;;;;;;;-1.11;87.66;98059.56;10405493;28;20519;-82
2023/01/31 10:32:34;;;;;;;0.95;0.80;;;;;;;-1.08;86.04;98063.59;10407119;28;20046;-83
2023/01/31 10:37:40;;;;;;;0.77;0.70;;;;;;;-1.05;85.75;98066.56;10413324;28;20045;-84
2023/01/31 10:42:48;;;;;;;0.98;0.85;;;;;;;-1.09;85.80;98073.56;10413402;28;20065;-83
2023/01/31 10:47:51;;;;;;;;;;;;;;;-1.08;86.71;98093.19;10394142;28;20045;-83
2023/01/31 10:53:15;;;;;;;1.05;0.90;;;;;;;-1.18;88.43;98098.59;10409586;28;19928;-83
2023/01/31 10:58:21;;;;;;;2.10;1.05;;;;;;;-1.40;90.51;98107.66;10409935;28;20053;-83
2023/01/31 11:03:23;;;;;;;1.40;1.13;;;;;;;-1.45;91.81;98117.63;10391487;28;20060;-83
2023/01/31 11:08:35;;;;;;;0.70;0.70;;;;;;;-1.44;92.70;98119.22;10408674;28;20053;-83
2023/01/31 11:13:38;;;;;;;2.28;0.80;;;;;;;-1.34;92.54;98116.56;10409950;28;20402;-84
2023/01/31 11:18:49;;;;;;;3.65;0.85;;;;;;;-1.36;91.70;98126.81;10408898;28;20523;-83
2023/01/31 11:24:02;;;;;;;1.60;0.90;;;;;;;-1.34;90.91;98130.84;10407226;28;20042;-82
2023/01/31 11:29:17;;;;;;;0.57;0.55;;;;;;;-1.34;90.57;98125.44;10406854;28;20427;-82
2023/01/31 11:34:24;;;;;;;0.32;0.32;;;;;;;-1.32;89.57;98135.94;10374795;28;20048;-83
2023/01/31 11:39:37;;;;;;;1.63;0.60;;;;;;;-1.31;88.09;98142.94;10407291;28;20069;-82
2023/01/31 11:45:18;;;;;;;0.70;0.52;;;;;;;-1.31;87.18;98146.44;10405443;28;20465;-83
2023/01/31 11:50:32;;;;;;;0.32;0.32;;;;;;;-1.24;87.38;98156.94;10406435;28;20046;-84
2023/01/31 11:55:36;;;;;;;1.25;0.47;;;;;;;-1.30;86.24;98169.56;10406605;28;20058;-82
2023/01/31 12:01:05;;;;;;;0.63;0.30;;;;;;;-1.26;86.14;98173.34;10404809;28;20049;-82
2023/01/31 12:06:08;;;;;;;1.77;0.60;;;;;;;-1.28;85.55;98182.75;10404910;28;20034;-83
2023/01/31 12:11:20;;;;;;;1.30;0.70;;;;;;;-1.29;85.75;98189.22;10388967;28;20139;-83
2023/01/31 12:16:27;;;;;;;0.28;0.28;;;;;;;-1.35;85.78;98211.81;10405727;28;20054;-84
2023/01/31 12:21:48;;;;;;;0.40;0.40;;;;;;;-1.40;85.79;98217.13;10404694;28;20058;-83
2023/01/31 12:26:58;;;;;;;0.70;0.40;;;;;;;-1.43;85.19;98231.13;10404004;28;20042;-82
2023/01/31 12:32:08;;;;;;;0.30;0.30;;;;;;;-1.43;85.20;98229.22;10404412;28;20049;-84
2023/01/31 12:37:43;;;;;;;0.20;0.20;;;;;;;-1.40;84.47;98228.72;10404004;28;20056;-83
2023/01/31 12:42:57;;;;;;;1.10;0.60;;;;;;;-1.42;83.92;98241.63;10404826;28;20042;-83
2023/01/31 12:48:21;;;;;;;0.30;0.30;;;;;;;-1.44;82.58;98251.03;10387982;28;20053;-83
2023/01/31 12:53:32;;;;;;;4.20;0.45;;;;;;;-1.45;82.74;98260.16;10404235;28;20497;-83
2023/01/31 12:58:43;;;;;;;1.20;0.32;;;;;;;-1.49;82.53;98261.75;10401739;28;20053;-82
2023/01/31 13:03:52;;;;;;;0.30;0.30;;;;;;;-1.54;82.48;98265.25;10400116;28;20042;-83
2023/01/31 13:09:02;;;;;;;6.72;0.30;;;;;;;-1.66;81.31;98276.19;10404008;28;20493;-84
2023/01/31 13:14:07;;;;;;;0.20;0.20;;;;;;;-1.69;81.45;98286.66;10402944;28;20046;-83
2023/01/31 13:19:35;;;;;;;0.28;0.20;;;;;;;-1.73;82.01;98285.56;10387146;28;20057;-84
2023/01/31 13:24:40;;;;;;;0.30;0.30;;;;;;;-1.75;82.38;98295.75;10403759;28;20049;-83
2023/01/31 13:29:51;;;;;;;0.20;0.20;;;;;;;-1.75;82.40;98295.75;10386688;28;20878;-83
2023/01/31 13:34:58;;;;;;;0.30;0.30;;;;;;;-1.74;82.47;98305.41;10370865;28;20042;-83
2023/01/31 13:40:21;;;;;;;1.65;0.60;;;;;;;-1.84;82.20;98315.06;10403752;28;20072;-84
2023/01/31 13:45:32;;;;;;;1.23;0.40;;;;;;;-1.87;82.27;98309.38;10396213;28;20058;-83
2023/01/31 13:50:38;;;;;;;0.90;0.50;;;;;;;-1.88;82.10;98316.63;10385621;28;20767;-83
2023/01/31 13:55:48;;;;;;;0.93;0.65;;;;;;;-1.93;81.37;98308.50;10403203;28;20049;-83
2023/01/31 14:01:35;;;;;;;0.30;0.30;;;;;;;-1.92;80.92;98339.69;10386043;28;20050;-83
2023/01/31 14:07:01;;;;;;;0.30;0.30;;;;;;;-1.94;81.07;98335.66;10385101;28;20046;-82
2023/01/31 14:12:16;;;;;;;0.90;0.40;;;;;;;-1.97;81.31;98353.09;10410277;28;20145;-84
2023/01/31 14:17:21;;;;;;;2.15;0.50;;;;;;;-1.95;81.55;98374.34;10411339;28;20057;-83
2023/01/31 14:22:33;;;;;;;0.65;0.50;;;;;;;-1.92;82.05;98379.19;10409653;28;20056;-84
2023/01/31 14:28:00;;;;;;;0.40;0.40;;;;;;;-1.95;82.23;98385.09;10410866;28;20049;-82
2023/01/31 14:33:15;;;;;;;0.20;0.20;;;;;;;-1.89;82.50;98387.59;10409178;28;20049;-83
2023/01/31 14:38:29;;;;;;;0.30;0.30;;;;;;;-1.90;82.01;98395.91;10409953;28;20045;-82
2023/01/31 14:43:40;;;;;;;1.35;0.63;;;;;;;-1.90;82.27;98399.41;10409285;28;20049;-83
2023/01/31 14:49:07;;;;;;;0.50;0.50;;;;;;;-1.93;82.58;98407.16;10391518;28;20041;-84
2023/01/31 14:54:35;;;;;;;0.30;0.30;;;;;;;-1.92;82.80;98406.06;10408782;28;20056;-83
2023/01/31 14:59:52;;;;;;;0.40;0.40;;;;;;;-1.91;83.21;98416.59;10407243;28;20046;-84
2023/01/31 15:04:58;;;;;;;1.27;0.65;;;;;;;-1.90;83.18;98420.91;10409389;28;20054;-82
2023/01/31 15:10:03;;;;;;;0.45;0.43;;;;;;;-1.92;83.67;98431.06;10408696;28;20056;-83
2023/01/31 15:15:23;;;;;;;0.60;0.60;;;;;;;-1.91;83.89;98429.19;10407038;28;20054;-84
2023/01/31 15:20:34;;;;;;;1.90;0.80;;;;;;;-1.89;84.11;98432.47;10406414;28;20061;-82
2023/01/31 15:25:43;;;;;;;2.03;0.52;;;;;;;-1.88;84.58;98445.66;10391374;28;20045;-84
2023/01/31 15:30:46;;;;;;;0.98;0.88;;;;;;;-1.87;85.17;98454.53;10408518;28;20534;-82
2023/01/31 15:35:53;;;;;;;0.73;0.30;;;;;;;-1.84;85.02;98462.06;10393789;28;20045;-82
2023/01/31 15:41:14;;;;;;;0.75;0.75;;;;;;;-1.80;85.81;98478.50;10389972;28;20444;-83
2023/01/31 15:46:20;;;;;;;0.32;0.32;;;;;;;-1.79;85.64;98478.25;10407546;28;20519;-82
2023/01/31 15:51:23;;;;;;;0.50;0.50;;;;;;;-1.77;86.26;98476.13;10407986;28;20045;-83
2023/01/31 15:56:27;;;;;;;0.43;0.43;;;;;;;-1.72;86.72;98486.13;10407280;28;20054;-82
2023/01/31 16:01:29;;;;;;;2.05;0.60;;;;;;;-1.70;86.68;98490.19;10406963;28;20049;-84
2023/01/31 16:06:35;;;;;;;0.65;0.40;;;;;;;-1.65;86.99;98500.16;10405807;28;20042;-82
2023/01/31 16:11:38;;;;;;;1.17;0.32;;;;;;;-1.62;87.00;98494.28;10405588;28;20049;-83
2023/01/31 16:16:40;;;;;;;0.77;0.75;;;;;;;-1.12;86.96;98493.91;10406174;28;20548;-83
2023/01/31 16:21:46;;;;;;;0.88;0.50;;;;;;;-0.95;85.65;98494.56;10404677;28;20421;-83
2023/01/31 16:27:14;;;;;;;3.38;0.50;;;;;;;-0.87;85.11;98495.13;10404057;28;20046;-81
2023/01/31 16:32:27;;;;;;;0.82;0.52;;;;;;;-0.85;84.42;98493.84;10404316;28;20060;-83
2023/01/31 16:37:38;;;;;;;0.63;0.45;;;;;;;-0.60;84.01;98503.94;10404395;28;20045;-82
2023/01/31 16:42:40;;;;;;;2.33;0.57;;;;;;;-0.77;83.16;98505.97;10404594;28;20056;-82
2023/01/31 16:47:50;;;;;;;0.55;0.40;;;;;;;-0.79;83.25;98502.75;10404268;28;20054;-83
2023/01/31 16:53:07;;;;;;;1.85;0.55;;;;;;;-0.96;83.64;98516.34;10404666;28;20038;-83
2023/01/31 16:58:11;;;;;;;0.73;0.43;;;;;;;-1.18;83.68;98515.66;10403239;28;20049;-84
2023/01/31 17:03:18;;;;;;;0.55;0.35;;;;;;;-1.34;83.52;98526.28;10404253;28;20046;-83
2023/01/31 17:08:21;;;;;;;0.40;0.40;;;;;;;-1.33;84.11;98529.78;10405023;28;20042;-82
2023/01/31 17:13:24;;;;;;;0.40;0.40;;;;;;;-1.41;84.09;98538.31;10387915;28;20493;-83
2023/01/31 17:18:27;;;;;;;1.65;0.85;;;;;;;-1.44;84.42;98528.88;10404670;28;20057;-83
2023/01/31 17:23:29;;;;;;;0.28;0.28;;;;;;;-1.45;84.21;98535.31;10404735;28;20501;-81
2023/01/31 17:28:31;;;;;;;0.90;0.38;;;;;;;-1.49;84.42;98534.22;10404061;28;20050;-82
2023/01/31 17:33:33;;;;;;;0.30;0.30;;;;;;;-1.48;84.23;98551.16;10403578;28;20050;-81
2023/01/31 17:38:36;;;;;;;0.57;0.40;;;;;;;-1.54;83.96;98548.44;10403389;28;20201;-82
2023/01/31 17:43:38;;;;;;;1.38;0.50;;;;;;;-1.55;84.13;98554.88;10407844;28;20041;-83
2023/01/31 17:48:41;;;;;;;1.73;0.70;;;;;;;-1.57;84.22;98548.09;10411598;28;20412;-84
2023/01/31 17:53:43;;;;;;;1.35;0.47;;;;;;;-1.60;84.30;98557.47;10412034;28;20052;-83
2023/01/31 17:58:45;;;;;;;0.40;0.40;;;;;;;-1.59;84.18;98567.19;10410708;28;20056;-83
2023/01/31 18:03:47;;;;;;;2.17;0.70;;;;;;;-1.54;84.71;98580.69;10411750;28;20073;-83
2023/01/31 18:08:50;;;;;;;0.85;0.50;;;;;;;-1.57;84.50;98578.50;10411134;28;20072;-84
2023/01/31 18:13:52;;;;;;;0.20;0.20;;;;;;;-1.60;84.43;98588.94;10418241;28;20042;-85
2023/01/31 18:18:54;;;;;;;2.90;0.60;;;;;;;-1.67;85.04;98591.03;10432588;28;20054;-83
2023/01/31 18:23:57;;;;;;;0.82;0.50;;;;;;;-1.76;86.08;98600.59;10429725;28;20547;-83
2023/01/31 18:28:59;;;;;;;1.58;0.73;;;;;;;-1.76;86.45;98600.59;10422890;28;20052;-83
2023/01/31 18:34:02;;;;;;;0.93;0.50;;;;;;;-1.82;87.39;98594.34;10423470;28;20038;-85
2023/01/31 18:39:04;;;;;;;0.70;0.52;;;;;;;-1.90;88.08;98598.31;10421325;28;20054;-84
2023/01/31 18:44:06;;;;;;;1.65;1.00;;;;;;;-1.98;88.74;98593.34;10414990;28;20049;-83
2023/01/31 18:49:09;;;;;;;0.90;0.63;;;;;;;-2.03;88.80;98605.91;10412203;28;20050;-84
2023/01/31 18:54:12;;;;;;;2.00;0.70;;;;;;;-1.99;89.61;98596.28;10412425;28;20056;-84
2023/01/31 18:59:14;;;;;;;2.80;1.08;;;;;;;-1.92;89.55;98599.59;10414927;28;20099;-85
2023/01/31 19:04:16;;;;;;;1.73;1.08;;;;;;;-1.96;89.56;98609.22;10412791;28;20048;-84
2023/01/31 19:09:19;;;;;;;4.75;1.45;;;;;;;-1.90;89.86;98602.88;10414796;28;20048;-84
2023/01/31 19:14:21;;;;;;;1.33;0.82;;;;;;;-1.86;89.72;98607.47;10414867;28;20046;-85
2023/01/31 19:19:23;;;;;;;3.60;1.75;;;;;;;-1.93;89.06;98617.59;10413661;28;20064;-84
2023/01/31 19:24:26;;;;;;;2.80;1.30;;;;;;;-1.97;89.09;98611.09;10410495;28;20034;-84
2023/01/31 19:29:28;;;;;;;1.15;1.05;;;;;;;-1.99;88.68;98607.84;10410336;28;20045;-85
2023/01/31 19:34:30;;;;;;;1.08;0.85;;;;;;;-2.03;88.04;98609.41;10409233;28;20509;-85
2023/01/31 19:39:32;;;;;;;1.60;1.05;;;;;;;-2.08;87.89;98611.19;10409290;28;20455;-84
2023/01/31 19:44:35;;;;;;;2.13;1.10;;;;;;;-2.19;87.39;98621.03;10408872;28;20456;-84
2023/01/31 19:49:37;;;;;;;1.25;0.80;;;;;;;-2.22;87.27;98629.59;10407298;28;20053;-85
2023/01/31 19:54:40;;;;;;;2.00;1.05;;;;;;;-2.18;87.09;98633.38;10409280;28;20050;-85
2023/01/31 19:59:43;;;;;;;1.13;0.80;;;;;;;-2.09;86.70;98639.13;10393930;28;20054;-85
2023/01/31 20:04:45;;;;;;;1.88;0.77;;;;;;;-2.00;86.50;98643.03;10411492;28;20057;-85
2023/01/31 20:09:47;;;;;;;1.00;0.85;;;;;;;-1.97;86.34;98645.22;10406993;28;20046;-84
2023/01/31 20:14:49;;;;;;;1.83;1.30;;;;;;;-2.02;86.90;98648.66;10406955;28;20034;-85
2023/01/31 20:19:52;;;;;;;1.60;1.00;;;;;;;-2.03;86.05;98638.97;10409343;28;20053;-85
2023/01/31 20:24:55;;;;;;;0.63;0.63;;;;;;;-2.05;86.20;98638.41;10409151;28;20445;-84
2023/01/31 20:29:58;;;;;;;2.08;1.25;;;;;;;-2.10;85.67;98645.56;10411034;28;20045;-84
2023/01/31 20:35:01;;;;;;;0.95;0.47;;;;;;;-2.10;85.37;98654.44;10411382;28;20052;-84
2023/01/31 20:40:03;;;;;;;2.05;0.98;;;;;;;-2.10;85.45;98653.63;10406570;28;20065;-84
2023/01/31 20:45:06;;;;;;;0.63;0.63;;;;;;;-2.12;85.13;98661.94;10404258;28;20041;-85
2023/01/31 20:50:09;;;;;;;1.20;1.08;;;;;;;-2.04;84.70;98674.97;10411406;28;20072;-84
2023/01/31 20:55:11;;;;;;;0.38;0.38;;;;;;;-1.99;84.49;98675.03;10406330;28;20046;-84
2023/01/31 21:00:15;;;;;;;0.77;0.63;;;;;;;-1.91;84.22;98676.47;10406927;28;20042;-85
2023/01/31 21:05:18;;;;;;;2.22;0.88;;;;;;;-1.83;83.52;98684.13;10387635;28;20038;-84
2023/01/31 21:10:20;;;;;;;1.08;0.60;;;;;;;-1.77;82.95;98685.00;10403586;28;20042;-85
2023/01/31 21:21:22;;;;;;;1.40;0.50;;;;;;;-1.66;82.74;98676.00;10404968;28;20520;-84
2023/01/31 21:26:25;;;;;;;0.40;0.40;;;;;;;-1.64;82.13;98688.13;10403960;28;20049;-85
2023/01/31 21:31:27;;;;;;;0.60;0.60;;;;;;;-1.64;82.73;98690.00;10405050;28;20060;-84
2023/01/31 21:36:30;;;;;;;0.60;0.60;;;;;;;-1.63;83.25;98694.31;10404481;28;20033;-84
2023/01/31 21:46:57;;;;;;;0.93;0.52;;;;;;;-1.72;86.82;98704.72;10404161;28;20050;-86
2023/01/31 21:52:04;;;;;;;0.50;0.50;;;;;;;-1.73;87.84;98711.16;10402781;28;20425;-85
2023/01/31 21:57:07;;;;;;;0.50;0.50;;;;;;;-1.74;88.76;98698.75;10404466;28;20559;-84
2023/01/31 22:02:09;;;;;;;0.70;0.50;;;;;;;-1.78;89.84;98703.00;10404194;28;20042;-86
2023/01/31 22:07:12;;;;;;;0.98;0.57;;;;;;;-1.79;90.11;98709.44;10404128;28;20038;-85
2023/01/31 22:12:14;;;;;;;0.52;0.50;;;;;;;-1.77;90.59;98717.25;10404527;28;20433;-84
2023/01/31 22:17:22;;;;;;;0.68;0.55;;;;;;;-1.85;91.07;98721.19;10403654;28;20038;-85
2023/01/31 22:22:24;;;;;;;0.57;0.57;;;;;;;-1.89;91.89;98723.56;10402591;28;20052;-85
2023/01/31 22:27:56;;;;;;;0.50;0.30;;;;;;;-1.83;92.32;98725.25;10405256;28;20559;-84
2023/01/31 22:32:59;;;;;;;1.15;0.43;;;;;;;-1.80;92.84;98731.19;10393785;28;20534;-83
2023/01/31 22:38:02;;;;;;;0.57;0.40;;;;;;;-1.78;93.41;98726.38;10410237;28;20053;-84
2023/01/31 22:43:05;;;;;;;0.30;0.30;;;;;;;-1.79;93.34;98735.50;10409912;28;20049;-83
2023/01/31 22:48:07;;;;;;;0.65;0.55;;;;;;;-1.82;93.79;98726.88;10410708;28;20042;-82
2023/01/31 22:53:14;;;;;;;0.63;0.60;;;;;;;-1.83;94.04;98729.81;10411048;28;20160;-84
2023/01/31 22:58:17;;;;;;;1.25;0.50;;;;;;;-1.84;94.29;98729.00;10409023;28;20041;-83
2023/01/31 23:03:19;;;;;;;0.40;0.38;;;;;;;-1.82;94.09;98736.81;10410016;28;20044;-84
2023/01/31 23:08:21;;;;;;;6.32;0.60;;;;;;;-1.80;94.73;98734.69;10410038;28;20049;-84
2023/01/31 23:13:24;;;;;;;1.88;0.65;;;;;;;-1.81;95.12;98733.06;10409009;28;20493;-83
2023/01/31 23:18:30;;;;;;;2.83;0.60;;;;;;;-1.80;95.63;98734.69;10408959;28;20476;-83
2023/01/31 23:23:32;;;;;;;3.97;1.08;;;;;;;-1.80;95.99;98732.00;10406888;28;20520;-83
2023/01/31 23:28:34;;;;;;;1.88;1.00;;;;;;;-1.77;95.89;98734.19;10407409;28;20049;-85
2023/01/31 23:33:36;;;;;;;1.60;0.80;;;;;;;-1.77;96.63;98734.19;10408654;28;20053;-84
2023/01/31 23:38:39;;;;;;;1.40;0.85;;;;;;;-1.74;96.75;98741.75;10406830;28;20053;-83
2023/01/31 23:43:41;;;;;;;1.08;0.70;;;;;;;-1.82;96.77;98739.50;10407428;28;20046;-85
2023/01/31 23:48:43;;;;;;;0.60;0.60;;;;;;;-1.85;97.25;98738.13;10407113;28;20049;-84
2023/01/31 23:53:45;;;;;;;0.90;0.70;;;;;;;-1.80;97.49;98740.06;10406218;28;20505;-85
2023/01/31 23:58:47;;;;;;;4.20;1.38;;;;;;;-1.85;98.45;98742.69;10407350;28;20053;-84
